Tucson, AZ (85749)

8:23 AM MST on August 30, 2015 (GMT -0700)
www.cactusjackstravel.com | | Change Station
CLOSE
Current Station
Personal Weather Station
Location: Tucson, AZ
Elevation: 2684 ft
Nearby Weather Stations

Elev 2684 ft 32.27 °N, 110.77 °W | Updated 15 minutes ago

Clear
Clear
80.7 °F
Feels Like 82 °F
N
0.0
Wind Variable Wind from NE
Gusts 0.0 mph

Today
High -- | Low -- °F
--% Chance of Precip.
Yesterday
High -- | Low -- °F
Precip. -- in
5:56 AM 6:50 PM
Full, 99% visible
Pressure 29.88 in
Visibility 10.0 miles
Clouds Clear
Heat Index 82 °F
Dew Point 62 °F
Humidity 54%
Rainfall 0.00 in
Snow Depth Not available.
UV 1.0 out of 12
Pollen 4.40 out of 12
Air Quality Not available.
Flu Activity Not available.
METAR KDMA 301458Z AUTO 09003KT 10SM CLR 28/15 A3001 RMK AO2 SLP116 T02750154 52012 $
Pressure 29.88 in
Visibility 10.0 miles
Clouds Clear
Heat Index 82 °F
Dew Point 62 °F
Humidity 54%
Rainfall 0.00 in
Snow Depth Not available.
UV 1.0 out of 12
Pollen 4.40 out of 12
Air Quality Not available.
Flu Activity Not available.
METAR KDMA 301458Z AUTO 09003KT 10SM CLR 28/15 A3001 RMK AO2 SLP116 T02750154 52012 $

10-Day Weather Forecast

×

Almanac

Astronomy

Aug. 30, 2015 Rise Set
Actual Time
Civil Twilight
Nautical Twilight
Astronomical Twilight
Moon
Length of Visible Light
Length of Day
Tomorrow will be .
, % of the Moon is Illuminated

Today's Extremes

State Highs State Lows

Community

WunderPhotos

Upload Photos

1,850,995 photos uploaded!

WunderBlogs® & News

Nearby

Air Quality

  Air Quality AQ Index Pollutant
Not available.

Snow Depth

Station Depth Elevation

Earthquake Activity

City Distance Mag. Time & Date
Minimum magnitude displayed is 2.5.

Coastal Water Temperatures

Place Temperature

Stations

Nearby Weather Stations

Station Location Temp. Windchill Dew Point Humidity Wind Precip. Elev Updated Type